Time;durP1;ratioP1;P1;durP2;ratioP2;P2;SDS_P1;SDS_P2;PMS_P1;PMS_P2;Temp;Humidity;BMP_temperature;BMP_pressure;BME280_temperature;BME280_humidity;BME280_pressure;Samples;Min_cycle;Max_cycle;Signal;HPM_P1;HPM_P2
2024/03/30 00:02:34;;;;;;;;;;;10.00;99.90;;;;;;6718427;88;20217;-77
2024/03/30 00:12:35;;;;;;;;;;;10.00;99.90;;;;;;6720469;88;20104;-77
2024/03/30 00:22:35;;;;;;;;;;;10.10;99.90;;;;;;6719044;88;20856;-78
2024/03/30 00:32:36;;;;;;;;;;;10.10;99.90;;;;;;6718109;88;20622;-77
2024/03/30 00:42:36;;;;;;;;;;;10.00;99.90;;;;;;6727905;88;20357;-77
2024/03/30 00:52:37;;;;;;;;;;;9.90;99.90;;;;;;6719311;88;20433;-78
2024/03/30 01:02:40;;;;;;;;;;;9.80;99.90;;;;;;6718219;88;20063;-78
2024/03/30 01:12:41;;;;;;;;;;;9.80;99.90;;;;;;6719098;88;20059;-76
2024/03/30 01:22:42;;;;;;;;;;;9.70;99.90;;;;;;6720627;88;20133;-78
2024/03/30 01:32:43;;;;;;;;;;;9.60;99.90;;;;;;6728659;88;20584;-77
2024/03/30 01:52:47;;;;;;;;;;;9.40;99.90;;;;;;6720876;88;20078;-78
2024/03/30 02:02:50;;;;;;;;;;;9.40;99.90;;;;;;6715079;88;20584;-78
2024/03/30 02:12:51;;;;;;;;;;;9.50;99.90;;;;;;6722976;88;20696;-78
2024/03/30 02:22:52;;;;;;;;;;;9.40;99.90;;;;;;6730574;88;20086;-78
2024/03/30 02:32:53;;;;;;;;;;;9.40;99.90;;;;;;6721708;88;20059;-78
2024/03/30 02:42:54;;;;;;;;;;;9.40;99.90;;;;;;6735786;88;20075;-78
2024/03/30 02:52:54;;;;;;;;;;;9.40;99.90;;;;;;6735051;88;20130;-78
2024/03/30 03:02:55;;;;;;;;;;;9.30;99.90;;;;;;6733886;88;20069;-78
2024/03/30 03:12:55;;;;;;;;;;;9.30;99.90;;;;;;6733315;88;20134;-77
2024/03/30 03:22:55;;;;;;;;;;;9.30;99.90;;;;;;6735245;88;20079;-77
2024/03/30 03:32:56;;;;;;;;;;;9.20;99.90;;;;;;6734596;88;20066;-78
2024/03/30 03:42:56;;;;;;;;;;;9.20;99.90;;;;;;6729993;88;20058;-78
2024/03/30 03:52:57;;;;;;;;;;;9.20;99.90;;;;;;6722110;88;20086;-77
2024/03/30 04:02:57;;;;;;;;;;;9.20;99.90;;;;;;6725033;88;20107;-77
2024/03/30 04:12:59;;;;;;;;;;;9.30;99.90;;;;;;6720615;88;20096;-77
2024/03/30 04:23:00;;;;;;;;;;;9.40;99.90;;;;;;6720556;88;20586;-77
2024/03/30 04:33:00;;;;;;;;;;;9.50;99.90;;;;;;6720134;88;20054;-77
2024/03/30 04:43:01;;;;;;;;;;;9.50;99.90;;;;;;6725223;88;20204;-77
2024/03/30 04:53:01;;;;;;;;;;;9.50;99.90;;;;;;6726573;88;20520;-78
2024/03/30 05:03:01;;;;;;;;;;;9.60;99.90;;;;;;6729130;88;20050;-76
2024/03/30 05:13:04;;;;;;;;;;;9.70;99.90;;;;;;6722059;88;20066;-78
2024/03/30 05:23:05;;;;;;;;;;;9.70;99.90;;;;;;6724188;88;20044;-78
2024/03/30 05:33:05;;;;;;;;;;;9.90;99.90;;;;;;6716145;88;20070;-78
2024/03/30 05:43:06;;;;;;;;;;;10.00;99.90;;;;;;6723284;88;20079;-77
2024/03/30 05:53:06;;;;;;;;;;;10.10;99.90;;;;;;6720984;88;20081;-78
2024/03/30 06:03:07;;;;;;;;;;;10.20;99.90;;;;;;6724417;88;20076;-78
2024/03/30 06:13:08;;;;;;;;;;;10.40;99.90;;;;;;6731593;88;20067;-77
2024/03/30 06:23:08;;;;;;;;;;;10.50;99.90;;;;;;6727845;88;20076;-77
2024/03/30 06:33:10;;;;;;;;;;;10.50;99.90;;;;;;6721482;88;20243;-77
2024/03/30 06:53:29;;;;;;;;;;;10.70;99.90;;;;;;6721132;88;20103;-77
2024/03/30 07:03:30;;;;;;;;;;;10.90;99.90;;;;;;6723224;88;20083;-77
2024/03/30 07:13:30;;;;;;;;;;;11.10;99.90;;;;;;6723584;88;20088;-77
2024/03/30 07:23:31;;;;;;;;;;;11.40;99.90;;;;;;6733079;88;20075;-77
2024/03/30 07:33:32;;;;;;;;;;;11.60;99.90;;;;;;6724082;88;20088;-78
2024/03/30 07:43:32;;;;;;;;;;;11.90;99.90;;;;;;6726162;77;20063;-76
2024/03/30 07:53:33;;;;;;;;;;;12.10;99.90;;;;;;6718332;88;20062;-76
2024/03/30 08:03:33;;;;;;;;;;;12.20;99.90;;;;;;6721206;88;20062;-76
2024/03/30 08:13:34;;;;;;;;;;;12.10;99.90;;;;;;6717042;88;20121;-77
2024/03/30 08:23:34;;;;;;;;;;;12.30;99.90;;;;;;6716762;88;20649;-77
2024/03/30 08:33:35;;;;;;;;;;;12.80;99.90;;;;;;6717929;88;20047;-77
2024/03/30 08:43:35;;;;;;;;;;;13.40;99.90;;;;;;6720166;88;20615;-77
2024/03/30 08:53:36;;;;;;;;;;;13.60;99.90;;;;;;6709289;88;20106;-77
2024/03/30 09:03:37;;;;;;;;;;;14.10;99.90;;;;;;6714764;88;20537;-78
2024/03/30 09:13:37;;;;;;;;;;;14.50;99.90;;;;;;6723049;88;20084;-77
2024/03/30 09:23:38;;;;;;;;;;;14.70;99.90;;;;;;6716978;88;20183;-76
2024/03/30 09:33:38;;;;;;;;;;;14.70;99.90;;;;;;6720332;88;20568;-76
2024/03/30 09:43:39;;;;;;;;;;;14.90;99.90;;;;;;6721275;88;20084;-77
2024/03/30 09:53:40;;;;;;;;;;;15.20;99.90;;;;;;6716414;88;20489;-77
2024/03/30 10:03:41;;;;;;;;;;;15.40;99.90;;;;;;6718922;88;20108;-76
2024/03/30 10:13:45;;;;;;;;;;;15.70;99.90;;;;;;6711920;88;20084;-78
2024/03/30 10:23:46;;;;;;;;;;;16.00;99.90;;;;;;6717856;88;20066;-78
2024/03/30 10:33:46;;;;;;;;;;;16.30;99.90;;;;;;6715936;88;20055;-76
2024/03/30 10:43:47;;;;;;;;;;;16.30;99.90;;;;;;6718077;88;20145;-76
2024/03/30 10:53:48;;;;;;;;;;;16.00;99.90;;;;;;6716972;88;20071;-77
2024/03/30 11:03:49;;;;;;;;;;;15.80;99.90;;;;;;6716725;88;20141;-78
2024/03/30 11:13:49;;;;;;;;;;;15.60;99.90;;;;;;6716675;88;20139;-76
2024/03/30 11:23:57;;;;;;;;;;;16.40;99.90;;;;;;6703240;88;20516;-76
2024/03/30 11:34:07;;;;;;;;;;;16.80;99.90;;;;;;6721127;88;20052;-77
2024/03/30 11:44:11;;;;;;;;;;;17.00;99.90;;;;;;6714431;88;20078;-77
2024/03/30 11:54:27;;;;;;;;;;;16.90;99.90;;;;;;6702688;88;20077;-78
2024/03/30 12:04:29;;;;;;;;;;;16.90;99.90;;;;;;6719367;88;20074;-78
2024/03/30 12:14:29;;;;;;;;;;;16.80;99.90;;;;;;6718883;88;20054;-78
2024/03/30 12:24:32;;;;;;;;;;;16.70;99.90;;;;;;6717498;88;20553;-78
2024/03/30 12:34:33;;;;;;;;;;;16.80;99.90;;;;;;6719692;88;20120;-77
2024/03/30 12:44:33;;;;;;;;;;;16.90;99.90;;;;;;6714596;88;20188;-77
2024/03/30 12:54:34;;;;;;;;;;;17.00;99.90;;;;;;6720736;88;20693;-77
2024/03/30 13:04:34;;;;;;;;;;;17.00;99.90;;;;;;6717891;88;20187;-79
2024/03/30 13:14:35;;;;;;;;;;;17.00;99.90;;;;;;6717858;88;20076;-78
2024/03/30 13:24:36;;;;;;;;;;;17.20;99.90;;;;;;6717735;88;20140;-78
2024/03/30 13:34:36;;;;;;;;;;;17.00;99.90;;;;;;6717769;88;20751;-78
2024/03/30 13:54:42;;;;;;;;;;;16.50;99.90;;;;;;6718526;88;20554;-78
2024/03/30 14:04:42;;;;;;;;;;;16.30;99.90;;;;;;6710171;88;20562;-78
2024/03/30 14:14:43;;;;;;;;;;;16.10;99.90;;;;;;6713891;88;20073;-78
2024/03/30 14:24:43;;;;;;;;;;;16.00;99.90;;;;;;6710475;88;20065;-78
2024/03/30 14:34:44;;;;;;;;;;;16.00;99.90;;;;;;6709320;88;20213;-79
2024/03/30 14:44:50;;;;;;;;;;;15.80;99.90;;;;;;6707909;88;20063;-79
2024/03/30 14:54:50;;;;;;;;;;;15.70;99.90;;;;;;6709205;88;20072;-78
2024/03/30 15:04:53;;;;;;;;;;;15.50;99.90;;;;;;6716379;88;20063;-78
2024/03/30 15:14:53;;;;;;;;;;;15.40;99.90;;;;;;6710544;88;20231;-79
2024/03/30 15:24:54;;;;;;;;;;;15.20;99.90;;;;;;6713050;88;20135;-79
2024/03/30 15:34:54;;;;;;;;;;;15.10;99.90;;;;;;6718492;88;20052;-78
2024/03/30 15:44:58;;;;;;;;;;;15.10;99.90;;;;;;6713828;88;20117;-79
2024/03/30 15:55:00;;;;;;;;;;;14.90;99.90;;;;;;6714288;88;20070;-78
2024/03/30 16:05:01;;;;;;;;;;;14.90;99.90;;;;;;6716538;88;20086;-79
2024/03/30 16:15:02;;;;;;;;;;;14.90;99.90;;;;;;6714813;88;20059;-78
2024/03/30 16:25:02;;;;;;;;;;;14.80;99.90;;;;;;6710792;88;20186;-78
2024/03/30 16:35:03;;;;;;;;;;;14.60;99.90;;;;;;6709320;88;20077;-77
2024/03/30 16:45:03;;;;;;;;;;;14.50;99.90;;;;;;6713745;88;20653;-77
2024/03/30 16:55:04;;;;;;;;;;;14.60;99.90;;;;;;6718649;88;20056;-79
2024/03/30 17:05:04;;;;;;;;;;;14.40;99.90;;;;;;6709792;88;20080;-77
2024/03/30 17:15:05;;;;;;;;;;;14.30;99.90;;;;;;6708365;88;20153;-76
2024/03/30 17:25:06;;;;;;;;;;;14.30;99.90;;;;;;6714908;88;20478;-76
2024/03/30 17:35:07;;;;;;;;;;;14.20;99.90;;;;;;6715750;88;20061;-76
2024/03/30 17:45:08;;;;;;;;;;;14.10;99.90;;;;;;6729818;88;20059;-77
2024/03/30 17:55:08;;;;;;;;;;;14.00;99.90;;;;;;6707165;88;20061;-75
2024/03/30 18:05:09;;;;;;;;;;;13.90;99.90;;;;;;6704913;88;20502;-77
2024/03/30 18:15:09;;;;;;;;;;;13.80;99.90;;;;;;6715222;88;20141;-79
2024/03/30 18:25:10;;;;;;;;;;;13.80;99.90;;;;;;6701703;88;20056;-78
2024/03/30 18:35:10;;;;;;;;;;;13.70;99.90;;;;;;6712727;88;20069;-78
2024/03/30 18:45:11;;;;;;;;;;;13.50;99.90;;;;;;6704491;88;20068;-78
2024/03/30 18:55:11;;;;;;;;;;;13.30;99.90;;;;;;6712606;88;20078;-78
2024/03/30 19:05:12;;;;;;;;;;;13.20;99.90;;;;;;6704971;88;20060;-77
2024/03/30 19:15:12;;;;;;;;;;;13.30;99.90;;;;;;6706765;88;20181;-79
2024/03/30 19:25:13;;;;;;;;;;;13.20;99.90;;;;;;6708638;88;20079;-79
2024/03/30 19:35:13;;;;;;;;;;;13.00;99.90;;;;;;6707877;88;20195;-78
2024/03/30 19:55:18;;;;;;;;;;;12.90;99.90;;;;;;6738252;88;20139;-80
2024/03/30 20:05:22;;;;;;;;;;;12.60;99.90;;;;;;6738119;88;20615;-79
2024/03/30 20:15:22;;;;;;;;;;;12.60;99.90;;;;;;6737099;88;20057;-79
2024/03/30 20:25:23;;;;;;;;;;;12.30;99.90;;;;;;6737240;88;20492;-79
2024/03/30 20:35:23;;;;;;;;;;;12.20;99.90;;;;;;6737141;88;20132;-78
2024/03/30 20:45:24;;;;;;;;;;;12.20;99.90;;;;;;6736888;88;20542;-78
2024/03/30 20:55:26;;;;;;;;;;;12.00;99.90;;;;;;6737406;88;20045;-78
2024/03/30 21:05:26;;;;;;;;;;;11.80;99.90;;;;;;6737986;88;20113;-79
2024/03/30 21:15:27;;;;;;;;;;;11.70;99.90;;;;;;6737171;88;20106;-78
2024/03/30 21:25:27;;;;;;;;;;;11.50;99.90;;;;;;6736599;88;20087;-78
2024/03/30 21:35:28;;;;;;;;;;;11.50;99.90;;;;;;6736650;88;20104;-79
2024/03/30 21:45:28;;;;;;;;;;;11.40;99.90;;;;;;6736721;88;20130;-78
2024/03/30 21:55:28;;;;;;;;;;;11.40;99.90;;;;;;6736437;88;20061;-78
2024/03/30 22:05:29;;;;;;;;;;;11.20;99.90;;;;;;6734595;88;20462;-79
2024/03/30 22:15:30;;;;;;;;;;;11.20;99.90;;;;;;6736797;88;20053;-78
2024/03/30 22:25:33;;;;;;;;;;;11.00;99.90;;;;;;6736868;88;20591;-78
2024/03/30 22:35:37;;;;;;;;;;;10.70;99.90;;;;;;6736560;88;20062;-78
2024/03/30 22:45:37;;;;;;;;;;;10.40;99.90;;;;;;6749321;88;20994;-78
2024/03/30 22:55:37;;;;;;;;;;;10.10;99.90;;;;;;6743195;88;20081;-78
2024/03/30 23:05:39;;;;;;;;;;;9.90;99.90;;;;;;6735482;88;20086;-78
2024/03/30 23:15:39;;;;;;;;;;;9.80;99.90;;;;;;6735188;88;20174;-79
2024/03/30 23:25:43;;;;;;;;;;;9.60;99.90;;;;;;6734818;88;20111;-78
2024/03/30 23:35:43;;;;;;;;;;;9.40;99.90;;;;;;6738537;88;20172;-78
2024/03/30 23:45:44;;;;;;;;;;;9.30;99.90;;;;;;6739282;88;20077;-80
2024/03/30 23:55:44;;;;;;;;;;;9.00;99.90;;;;;;6738302;88;20078;-78
